sensor_id;sensor_type;location;lat;lon;timestamp;temperature;humidity
921;DHT22;447;51.332;6.778;2023-07-13T00:00:48;27.80;50.80
921;DHT22;447;51.332;6.778;2023-07-13T00:03:16;27.80;50.80
921;DHT22;447;51.332;6.778;2023-07-13T00:05:45;27.70;50.70
921;DHT22;447;51.332;6.778;2023-07-13T00:08:13;27.70;50.80
921;DHT22;447;51.332;6.778;2023-07-13T00:11:05;27.70;50.70
921;DHT22;447;51.332;6.778;2023-07-13T00:13:34;27.70;50.80
921;DHT22;447;51.332;6.778;2023-07-13T00:16:00;27.70;50.60
921;DHT22;447;51.332;6.778;2023-07-13T00:18:26;27.60;50.60
921;DHT22;447;51.332;6.778;2023-07-13T00:21:00;27.60;50.70
921;DHT22;447;51.332;6.778;2023-07-13T00:23:32;27.60;50.80
921;DHT22;447;51.332;6.778;2023-07-13T00:26:03;27.60;50.70
921;DHT22;447;51.332;6.778;2023-07-13T00:28:29;27.60;50.70
921;DHT22;447;51.332;6.778;2023-07-13T00:30:56;27.50;50.70
921;DHT22;447;51.332;6.778;2023-07-13T00:33:24;27.50;50.80
921;DHT22;447;51.332;6.778;2023-07-13T00:35:50;27.50;50.60
921;DHT22;447;51.332;6.778;2023-07-13T00:38:16;27.50;50.80
921;DHT22;447;51.332;6.778;2023-07-13T00:40:42;27.50;50.70
921;DHT22;447;51.332;6.778;2023-07-13T00:43:17;27.50;50.80
921;DHT22;447;51.332;6.778;2023-07-13T00:48:21;27.40;50.90
921;DHT22;447;51.332;6.778;2023-07-13T00:50:53;27.40;50.80
921;DHT22;447;51.332;6.778;2023-07-13T00:53:21;27.40;50.80
921;DHT22;447;51.332;6.778;2023-07-13T00:55:49;27.40;50.80
921;DHT22;447;51.332;6.778;2023-07-13T00:58:15;27.30;50.90
921;DHT22;447;51.332;6.778;2023-07-13T01:00:42;27.30;50.90
921;DHT22;447;51.332;6.778;2023-07-13T01:03:10;27.30;50.90
921;DHT22;447;51.332;6.778;2023-07-13T01:05:39;27.30;50.90
921;DHT22;447;51.332;6.778;2023-07-13T01:08:05;27.30;51.60
921;DHT22;447;51.332;6.778;2023-07-13T01:10:32;27.30;51.00
921;DHT22;447;51.332;6.778;2023-07-13T01:13:09;27.30;51.10
921;DHT22;447;51.332;6.778;2023-07-13T01:15:44;27.20;51.00
921;DHT22;447;51.332;6.778;2023-07-13T01:18:17;27.20;50.90
921;DHT22;447;51.332;6.778;2023-07-13T01:20:56;27.20;51.00
921;DHT22;447;51.332;6.778;2023-07-13T01:23:23;27.20;51.00
921;DHT22;447;51.332;6.778;2023-07-13T01:25:51;27.20;51.00
921;DHT22;447;51.332;6.778;2023-07-13T01:28:17;27.10;51.00
921;DHT22;447;51.332;6.778;2023-07-13T01:30:46;27.10;51.00
921;DHT22;447;51.332;6.778;2023-07-13T01:33:17;27.10;51.00
921;DHT22;447;51.332;6.778;2023-07-13T01:35:44;27.10;51.10
921;DHT22;447;51.332;6.778;2023-07-13T01:38:18;27.10;51.00
921;DHT22;447;51.332;6.778;2023-07-13T01:40:44;27.00;50.90
921;DHT22;447;51.332;6.778;2023-07-13T01:43:12;27.00;51.00
921;DHT22;447;51.332;6.778;2023-07-13T01:45:38;27.00;51.10
921;DHT22;447;51.332;6.778;2023-07-13T01:48:05;27.00;51.10
921;DHT22;447;51.332;6.778;2023-07-13T01:50:33;27.00;51.70
921;DHT22;447;51.332;6.778;2023-07-13T01:53:01;27.00;51.10
921;DHT22;447;51.332;6.778;2023-07-13T01:55:29;27.00;51.20
921;DHT22;447;51.332;6.778;2023-07-13T01:57:56;26.90;51.00
921;DHT22;447;51.332;6.778;2023-07-13T02:00:22;26.90;51.00
921;DHT22;447;51.332;6.778;2023-07-13T02:02:50;26.90;51.10
921;DHT22;447;51.332;6.778;2023-07-13T02:05:19;26.90;51.10
921;DHT22;447;51.332;6.778;2023-07-13T02:07:47;26.90;51.10
921;DHT22;447;51.332;6.778;2023-07-13T02:10:13;26.90;51.10
921;DHT22;447;51.332;6.778;2023-07-13T02:12:43;26.80;51.10
921;DHT22;447;51.332;6.778;2023-07-13T02:15:12;26.80;51.20
921;DHT22;447;51.332;6.778;2023-07-13T02:17:38;26.80;51.70
921;DHT22;447;51.332;6.778;2023-07-13T02:20:04;26.80;51.10
921;DHT22;447;51.332;6.778;2023-07-13T02:22:34;26.80;51.30
921;DHT22;447;51.332;6.778;2023-07-13T02:25:00;26.70;51.20
921;DHT22;447;51.332;6.778;2023-07-13T02:27:26;26.70;51.20
921;DHT22;447;51.332;6.778;2023-07-13T02:29:52;26.70;51.20
921;DHT22;447;51.332;6.778;2023-07-13T02:32:21;26.70;51.30
921;DHT22;447;51.332;6.778;2023-07-13T02:34:47;26.70;51.30
921;DHT22;447;51.332;6.778;2023-07-13T02:37:15;26.70;51.30
921;DHT22;447;51.332;6.778;2023-07-13T02:39:46;26.60;51.30
921;DHT22;447;51.332;6.778;2023-07-13T02:42:13;26.60;51.30
921;DHT22;447;51.332;6.778;2023-07-13T02:44:39;26.60;51.40
921;DHT22;447;51.332;6.778;2023-07-13T02:47:05;26.60;51.40
921;DHT22;447;51.332;6.778;2023-07-13T02:49:34;26.60;51.50
921;DHT22;447;51.332;6.778;2023-07-13T02:51:59;26.60;51.50
921;DHT22;447;51.332;6.778;2023-07-13T02:54:25;26.60;51.50
921;DHT22;447;51.332;6.778;2023-07-13T02:56:56;26.60;51.60
921;DHT22;447;51.332;6.778;2023-07-13T02:59:22;26.50;51.50
921;DHT22;447;51.332;6.778;2023-07-13T03:01:48;26.60;51.70
921;DHT22;447;51.332;6.778;2023-07-13T03:04:14;26.50;51.60
921;DHT22;447;51.332;6.778;2023-07-13T03:06:40;26.50;51.60
921;DHT22;447;51.332;6.778;2023-07-13T03:09:11;26.50;51.70
921;DHT22;447;51.332;6.778;2023-07-13T03:11:42;26.50;51.80
921;DHT22;447;51.332;6.778;2023-07-13T03:14:23;26.40;51.70
921;DHT22;447;51.332;6.778;2023-07-13T03:16:51;26.40;51.70
921;DHT22;447;51.332;6.778;2023-07-13T03:19:19;26.40;51.70
921;DHT22;447;51.332;6.778;2023-07-13T03:21:49;26.40;51.80
921;DHT22;447;51.332;6.778;2023-07-13T03:24:15;26.40;51.80
921;DHT22;447;51.332;6.778;2023-07-13T03:26:41;26.30;51.80
921;DHT22;447;51.332;6.778;2023-07-13T03:29:12;26.30;51.90
921;DHT22;447;51.332;6.778;2023-07-13T03:31:39;26.30;51.90
921;DHT22;447;51.332;6.778;2023-07-13T03:34:05;26.30;51.90
921;DHT22;447;51.332;6.778;2023-07-13T03:36:35;26.30;52.00
921;DHT22;447;51.332;6.778;2023-07-13T03:39:05;26.30;52.00
921;DHT22;447;51.332;6.778;2023-07-13T03:41:49;26.30;52.00
921;DHT22;447;51.332;6.778;2023-07-13T03:44:16;26.20;52.00
921;DHT22;447;51.332;6.778;2023-07-13T03:46:46;26.20;52.00
921;DHT22;447;51.332;6.778;2023-07-13T03:49:13;26.20;52.10
921;DHT22;447;51.332;6.778;2023-07-13T03:51:39;26.20;52.10
921;DHT22;447;51.332;6.778;2023-07-13T03:54:05;26.20;52.20
921;DHT22;447;51.332;6.778;2023-07-13T03:56:31;26.20;52.20
921;DHT22;447;51.332;6.778;2023-07-13T03:58:59;26.10;52.20
921;DHT22;447;51.332;6.778;2023-07-13T04:01:31;26.10;52.20
921;DHT22;447;51.332;6.778;2023-07-13T04:04:00;26.10;52.30
921;DHT22;447;51.332;6.778;2023-07-13T04:06:28;26.10;52.30
921;DHT22;447;51.332;6.778;2023-07-13T04:08:59;26.10;52.30
921;DHT22;447;51.332;6.778;2023-07-13T04:11:28;26.10;52.40
921;DHT22;447;51.332;6.778;2023-07-13T04:13:55;26.00;52.30
921;DHT22;447;51.332;6.778;2023-07-13T04:16:24;26.00;52.40
921;DHT22;447;51.332;6.778;2023-07-13T04:18:51;26.00;52.40
921;DHT22;447;51.332;6.778;2023-07-13T04:21:25;26.00;52.50
921;DHT22;447;51.332;6.778;2023-07-13T04:23:51;26.00;52.50
921;DHT22;447;51.332;6.778;2023-07-13T04:26:19;26.00;52.50
921;DHT22;447;51.332;6.778;2023-07-13T04:28:51;25.90;52.50
921;DHT22;447;51.332;6.778;2023-07-13T04:31:17;26.00;52.60
921;DHT22;447;51.332;6.778;2023-07-13T04:33:43;25.90;52.60
921;DHT22;447;51.332;6.778;2023-07-13T04:36:10;25.90;53.20
921;DHT22;447;51.332;6.778;2023-07-13T04:38:36;25.90;52.70
921;DHT22;447;51.332;6.778;2023-07-13T04:41:05;25.90;52.70
921;DHT22;447;51.332;6.778;2023-07-13T04:43:32;25.80;52.70
921;DHT22;447;51.332;6.778;2023-07-13T04:46:03;25.80;52.70
921;DHT22;447;51.332;6.778;2023-07-13T04:48:29;25.80;52.70
921;DHT22;447;51.332;6.778;2023-07-13T04:50:57;25.80;52.80
921;DHT22;447;51.332;6.778;2023-07-13T04:53:24;25.80;52.80
921;DHT22;447;51.332;6.778;2023-07-13T04:55:50;25.80;52.90
921;DHT22;447;51.332;6.778;2023-07-13T04:58:16;25.80;52.90
921;DHT22;447;51.332;6.778;2023-07-13T05:00:45;25.80;53.00
921;DHT22;447;51.332;6.778;2023-07-13T05:03:13;25.80;53.00
921;DHT22;447;51.332;6.778;2023-07-13T05:05:41;25.80;53.10
921;DHT22;447;51.332;6.778;2023-07-13T05:08:07;25.80;53.10
921;DHT22;447;51.332;6.778;2023-07-13T05:10:34;25.70;53.00
921;DHT22;447;51.332;6.778;2023-07-13T05:13:03;25.70;53.10
921;DHT22;447;51.332;6.778;2023-07-13T05:15:29;25.70;53.20
921;DHT22;447;51.332;6.778;2023-07-13T05:17:54;25.70;53.20
921;DHT22;447;51.332;6.778;2023-07-13T05:20:23;25.70;53.20
921;DHT22;447;51.332;6.778;2023-07-13T05:22:48;25.60;53.20
921;DHT22;447;51.332;6.778;2023-07-13T05:25:16;25.70;53.30
921;DHT22;447;51.332;6.778;2023-07-13T05:27:42;25.60;53.30
921;DHT22;447;51.332;6.778;2023-07-13T05:30:10;25.60;53.30
921;DHT22;447;51.332;6.778;2023-07-13T05:32:37;25.60;53.40
921;DHT22;447;51.332;6.778;2023-07-13T05:35:04;25.60;53.40
921;DHT22;447;51.332;6.778;2023-07-13T05:37:30;25.60;53.40
921;DHT22;447;51.332;6.778;2023-07-13T05:39:56;25.60;53.60
921;DHT22;447;51.332;6.778;2023-07-13T05:42:24;25.60;53.60
921;DHT22;447;51.332;6.778;2023-07-13T05:44:53;25.60;53.70
921;DHT22;447;51.332;6.778;2023-07-13T05:47:21;25.50;53.60
921;DHT22;447;51.332;6.778;2023-07-13T05:49:47;25.50;53.70
921;DHT22;447;51.332;6.778;2023-07-13T05:52:15;25.50;53.70
921;DHT22;447;51.332;6.778;2023-07-13T05:54:41;25.50;53.80
921;DHT22;447;51.332;6.778;2023-07-13T05:57:07;25.50;54.00
921;DHT22;447;51.332;6.778;2023-07-13T05:59:33;25.40;53.90
921;DHT22;447;51.332;6.778;2023-07-13T06:01:59;25.40;54.00
921;DHT22;447;51.332;6.778;2023-07-13T06:04:30;25.40;54.10
921;DHT22;447;51.332;6.778;2023-07-13T06:06:56;25.40;54.10
921;DHT22;447;51.332;6.778;2023-07-13T06:09:22;25.40;54.20
921;DHT22;447;51.332;6.778;2023-07-13T06:11:49;25.30;54.20
921;DHT22;447;51.332;6.778;2023-07-13T06:14:17;25.30;54.20
921;DHT22;447;51.332;6.778;2023-07-13T06:16:43;25.30;54.30
921;DHT22;447;51.332;6.778;2023-07-13T06:19:12;25.30;54.40
921;DHT22;447;51.332;6.778;2023-07-13T06:21:38;25.30;54.50
921;DHT22;447;51.332;6.778;2023-07-13T06:24:04;25.30;54.60
921;DHT22;447;51.332;6.778;2023-07-13T06:26:30;25.30;54.60
921;DHT22;447;51.332;6.778;2023-07-13T06:28:56;25.30;54.70
921;DHT22;447;51.332;6.778;2023-07-13T06:31:24;25.30;54.70
921;DHT22;447;51.332;6.778;2023-07-13T06:33:50;25.20;54.80
921;DHT22;447;51.332;6.778;2023-07-13T06:36:18;25.20;54.80
921;DHT22;447;51.332;6.778;2023-07-13T06:38:43;25.20;54.80
921;DHT22;447;51.332;6.778;2023-07-13T06:41:09;25.20;54.90
921;DHT22;447;51.332;6.778;2023-07-13T06:43:37;25.20;54.90
921;DHT22;447;51.332;6.778;2023-07-13T06:46:03;25.20;55.00
921;DHT22;447;51.332;6.778;2023-07-13T06:48:31;25.20;55.10
921;DHT22;447;51.332;6.778;2023-07-13T06:51:01;25.20;55.10
921;DHT22;447;51.332;6.778;2023-07-13T06:53:28;25.10;55.20
921;DHT22;447;51.332;6.778;2023-07-13T06:55:54;25.20;55.30
921;DHT22;447;51.332;6.778;2023-07-13T06:58:22;25.10;55.30
921;DHT22;447;51.332;6.778;2023-07-13T07:00:51;25.20;55.40
921;DHT22;447;51.332;6.778;2023-07-13T07:03:17;25.10;55.40
921;DHT22;447;51.332;6.778;2023-07-13T07:05:43;25.10;55.40
921;DHT22;447;51.332;6.778;2023-07-13T07:08:10;25.10;55.50
921;DHT22;447;51.332;6.778;2023-07-13T07:10:41;25.10;55.60
921;DHT22;447;51.332;6.778;2023-07-13T07:13:07;25.10;55.70
921;DHT22;447;51.332;6.778;2023-07-13T07:15:35;25.10;55.70
921;DHT22;447;51.332;6.778;2023-07-13T07:18:01;25.00;55.70
921;DHT22;447;51.332;6.778;2023-07-13T07:20:27;25.10;55.70
921;DHT22;447;51.332;6.778;2023-07-13T07:22:53;25.10;55.80
921;DHT22;447;51.332;6.778;2023-07-13T07:25:19;25.00;55.80
921;DHT22;447;51.332;6.778;2023-07-13T07:27:45;25.00;55.90
921;DHT22;447;51.332;6.778;2023-07-13T07:30:12;25.00;55.80
921;DHT22;447;51.332;6.778;2023-07-13T07:32:43;25.00;55.90
921;DHT22;447;51.332;6.778;2023-07-13T07:35:11;25.00;56.00
921;DHT22;447;51.332;6.778;2023-07-13T07:37:37;25.00;56.00
921;DHT22;447;51.332;6.778;2023-07-13T07:40:03;25.00;56.00
921;DHT22;447;51.332;6.778;2023-07-13T07:42:29;25.00;56.00
921;DHT22;447;51.332;6.778;2023-07-13T07:44:55;25.00;56.00
921;DHT22;447;51.332;6.778;2023-07-13T07:47:23;25.00;56.10
921;DHT22;447;51.332;6.778;2023-07-13T07:49:49;25.00;56.10
921;DHT22;447;51.332;6.778;2023-07-13T07:52:15;25.00;56.20
921;DHT22;447;51.332;6.778;2023-07-13T07:54:46;25.00;56.20
921;DHT22;447;51.332;6.778;2023-07-13T07:57:12;25.00;56.20
921;DHT22;447;51.332;6.778;2023-07-13T07:59:37;25.00;56.20
921;DHT22;447;51.332;6.778;2023-07-13T08:02:06;25.00;56.20
921;DHT22;447;51.332;6.778;2023-07-13T08:04:32;25.00;56.20
921;DHT22;447;51.332;6.778;2023-07-13T08:06:58;25.00;56.30
921;DHT22;447;51.332;6.778;2023-07-13T08:09:26;25.00;56.40
921;DHT22;447;51.332;6.778;2023-07-13T08:11:54;25.00;56.30
921;DHT22;447;51.332;6.778;2023-07-13T08:14:20;25.00;56.40
921;DHT22;447;51.332;6.778;2023-07-13T08:16:46;25.00;56.40
921;DHT22;447;51.332;6.778;2023-07-13T08:19:12;25.00;56.50
921;DHT22;447;51.332;6.778;2023-07-13T08:21:38;25.00;56.50
921;DHT22;447;51.332;6.778;2023-07-13T08:24:04;25.00;56.60
921;DHT22;447;51.332;6.778;2023-07-13T08:26:30;25.00;56.60
921;DHT22;447;51.332;6.778;2023-07-13T08:28:58;24.90;56.60
921;DHT22;447;51.332;6.778;2023-07-13T08:31:24;24.90;56.70
921;DHT22;447;51.332;6.778;2023-07-13T08:33:53;24.90;56.60
921;DHT22;447;51.332;6.778;2023-07-13T08:36:19;25.00;56.80
921;DHT22;447;51.332;6.778;2023-07-13T08:38:45;24.90;56.60
921;DHT22;447;51.332;6.778;2023-07-13T08:41:15;24.90;56.50
921;DHT22;447;51.332;6.778;2023-07-13T08:43:46;24.90;56.70
921;DHT22;447;51.332;6.778;2023-07-13T08:48:57;25.00;56.80
921;DHT22;447;51.332;6.778;2023-07-13T08:53:54;25.00;56.90
921;DHT22;447;51.332;6.778;2023-07-13T08:56:27;25.00;56.80
921;DHT22;447;51.332;6.778;2023-07-13T08:58:57;25.00;56.90
921;DHT22;447;51.332;6.778;2023-07-13T09:01:31;25.00;56.90
921;DHT22;447;51.332;6.778;2023-07-13T09:04:19;25.00;57.00
921;DHT22;447;51.332;6.778;2023-07-13T09:12:03;25.00;57.30
921;DHT22;447;51.332;6.778;2023-07-13T09:14:53;25.00;57.20
921;DHT22;447;51.332;6.778;2023-07-13T09:17:35;25.00;57.20
921;DHT22;447;51.332;6.778;2023-07-13T09:20:37;25.00;57.30
921;DHT22;447;51.332;6.778;2023-07-13T09:23:14;25.00;57.30
921;DHT22;447;51.332;6.778;2023-07-13T09:25:42;25.00;57.40
921;DHT22;447;51.332;6.778;2023-07-13T09:28:24;25.00;57.40
921;DHT22;447;51.332;6.778;2023-07-13T09:33:29;25.00;57.30
921;DHT22;447;51.332;6.778;2023-07-13T09:35:57;25.00;57.40
921;DHT22;447;51.332;6.778;2023-07-13T09:38:26;25.00;58.00
921;DHT22;447;51.332;6.778;2023-07-13T09:41:18;25.00;57.40
921;DHT22;447;51.332;6.778;2023-07-13T09:44:13;25.00;57.50
921;DHT22;447;51.332;6.778;2023-07-13T09:46:47;25.00;57.40
921;DHT22;447;51.332;6.778;2023-07-13T09:49:28;25.00;57.50
921;DHT22;447;51.332;6.778;2023-07-13T09:52:00;25.00;57.60
921;DHT22;447;51.332;6.778;2023-07-13T09:54:28;25.10;57.70
921;DHT22;447;51.332;6.778;2023-07-13T09:56:59;25.00;57.50
921;DHT22;447;51.332;6.778;2023-07-13T09:59:39;25.00;57.60
921;DHT22;447;51.332;6.778;2023-07-13T10:02:31;25.10;57.70
921;DHT22;447;51.332;6.778;2023-07-13T10:05:11;25.10;57.40
921;DHT22;447;51.332;6.778;2023-07-13T10:07:43;25.10;57.60
921;DHT22;447;51.332;6.778;2023-07-13T10:10:20;25.10;57.70
921;DHT22;447;51.332;6.778;2023-07-13T10:12:47;25.10;57.70
921;DHT22;447;51.332;6.778;2023-07-13T10:15:20;25.10;57.60
921;DHT22;447;51.332;6.778;2023-07-13T10:17:54;25.10;57.60
921;DHT22;447;51.332;6.778;2023-07-13T10:20:23;25.10;57.50
921;DHT22;447;51.332;6.778;2023-07-13T10:23:04;25.10;57.60
921;DHT22;447;51.332;6.778;2023-07-13T10:25:35;25.10;57.50
921;DHT22;447;51.332;6.778;2023-07-13T10:30:54;25.20;57.50
921;DHT22;447;51.332;6.778;2023-07-13T10:33:22;25.20;57.50
921;DHT22;447;51.332;6.778;2023-07-13T10:35:52;25.20;57.60
921;DHT22;447;51.332;6.778;2023-07-13T10:38:22;25.20;57.60
921;DHT22;447;51.332;6.778;2023-07-13T10:41:14;25.20;57.60
921;DHT22;447;51.332;6.778;2023-07-13T10:43:52;25.20;57.60
921;DHT22;447;51.332;6.778;2023-07-13T10:46:44;25.20;57.50
921;DHT22;447;51.332;6.778;2023-07-13T10:49:11;25.20;57.40
921;DHT22;447;51.332;6.778;2023-07-13T10:51:39;25.20;57.40
921;DHT22;447;51.332;6.778;2023-07-13T10:58:15;25.20;57.30
921;DHT22;447;51.332;6.778;2023-07-13T11:01:13;25.20;57.20
921;DHT22;447;51.332;6.778;2023-07-13T11:03:49;25.20;57.10
921;DHT22;447;51.332;6.778;2023-07-13T11:06:37;25.20;57.10
921;DHT22;447;51.332;6.778;2023-07-13T11:09:33;25.20;57.10
921;DHT22;447;51.332;6.778;2023-07-13T11:25:36;25.40;57.10
921;DHT22;447;51.332;6.778;2023-07-13T11:33:31;25.40;56.70
921;DHT22;447;51.332;6.778;2023-07-13T11:36:19;25.40;56.50
921;DHT22;447;51.332;6.778;2023-07-13T11:39:29;25.40;56.40
921;DHT22;447;51.332;6.778;2023-07-13T11:42:00;25.50;56.30
921;DHT22;447;51.332;6.778;2023-07-13T11:44:29;25.50;56.20
921;DHT22;447;51.332;6.778;2023-07-13T11:46:57;25.60;56.10
921;DHT22;447;51.332;6.778;2023-07-13T11:49:29;25.60;56.10
921;DHT22;447;51.332;6.778;2023-07-13T11:51:58;25.60;56.00
921;DHT22;447;51.332;6.778;2023-07-13T11:54:31;25.60;56.00
921;DHT22;447;51.332;6.778;2023-07-13T11:57:01;25.60;55.90
921;DHT22;447;51.332;6.778;2023-07-13T11:59:30;25.70;55.80
921;DHT22;447;51.332;6.778;2023-07-13T12:01:58;25.70;55.70
921;DHT22;447;51.332;6.778;2023-07-13T12:04:29;25.70;55.70
921;DHT22;447;51.332;6.778;2023-07-13T12:07:05;25.70;55.80
921;DHT22;447;51.332;6.778;2023-07-13T12:09:33;25.80;55.80
921;DHT22;447;51.332;6.778;2023-07-13T12:12:29;25.80;55.70
921;DHT22;447;51.332;6.778;2023-07-13T12:15:00;25.80;55.50
921;DHT22;447;51.332;6.778;2023-07-13T12:17:34;25.80;55.40
921;DHT22;447;51.332;6.778;2023-07-13T12:22:48;25.90;55.20
921;DHT22;447;51.332;6.778;2023-07-13T12:25:17;25.90;55.00
921;DHT22;447;51.332;6.778;2023-07-13T12:27:47;25.90;54.90
921;DHT22;447;51.332;6.778;2023-07-13T12:33:00;25.90;54.70
921;DHT22;447;51.332;6.778;2023-07-13T12:35:31;25.90;54.70
921;DHT22;447;51.332;6.778;2023-07-13T12:38:08;25.90;54.70
921;DHT22;447;51.332;6.778;2023-07-13T12:40:35;26.00;54.60
921;DHT22;447;51.332;6.778;2023-07-13T12:43:03;26.00;54.50
921;DHT22;447;51.332;6.778;2023-07-13T12:45:32;26.00;54.40
921;DHT22;447;51.332;6.778;2023-07-13T12:48:12;26.00;54.20
921;DHT22;447;51.332;6.778;2023-07-13T12:50:47;26.10;54.10
921;DHT22;447;51.332;6.778;2023-07-13T12:53:22;26.00;54.10
921;DHT22;447;51.332;6.778;2023-07-13T12:55:59;26.10;54.20
921;DHT22;447;51.332;6.778;2023-07-13T12:58:37;26.10;54.30
921;DHT22;447;51.332;6.778;2023-07-13T13:01:06;26.10;54.20
921;DHT22;447;51.332;6.778;2023-07-13T13:03:39;26.10;54.20
921;DHT22;447;51.332;6.778;2023-07-13T13:06:26;26.10;54.20
921;DHT22;447;51.332;6.778;2023-07-13T13:08:54;26.10;54.20
921;DHT22;447;51.332;6.778;2023-07-13T13:11:22;26.10;54.20
921;DHT22;447;51.332;6.778;2023-07-13T13:13:53;26.10;54.20
921;DHT22;447;51.332;6.778;2023-07-13T13:19:26;26.10;54.00
921;DHT22;447;51.332;6.778;2023-07-13T13:21:54;26.10;54.10
921;DHT22;447;51.332;6.778;2023-07-13T13:24:27;26.10;54.20
921;DHT22;447;51.332;6.778;2023-07-13T13:26:54;26.20;54.30
921;DHT22;447;51.332;6.778;2023-07-13T13:29:23;26.20;54.20
921;DHT22;447;51.332;6.778;2023-07-13T13:31:54;26.20;54.20
921;DHT22;447;51.332;6.778;2023-07-13T13:34:23;26.20;54.10
921;DHT22;447;51.332;6.778;2023-07-13T13:37:00;26.20;54.10
921;DHT22;447;51.332;6.778;2023-07-13T13:39:35;26.30;54.10
921;DHT22;447;51.332;6.778;2023-07-13T13:42:05;26.30;54.10
921;DHT22;447;51.332;6.778;2023-07-13T13:44:33;26.30;54.30
921;DHT22;447;51.332;6.778;2023-07-13T13:47:01;26.30;54.80
921;DHT22;447;51.332;6.778;2023-07-13T13:49:30;26.30;55.10
921;DHT22;447;51.332;6.778;2023-07-13T13:51:58;26.30;55.10
921;DHT22;447;51.332;6.778;2023-07-13T13:54:24;26.30;55.00
921;DHT22;447;51.332;6.778;2023-07-13T13:56:52;26.30;55.10
921;DHT22;447;51.332;6.778;2023-07-13T13:59:18;26.40;55.80
921;DHT22;447;51.332;6.778;2023-07-13T14:01:46;26.40;55.90
921;DHT22;447;51.332;6.778;2023-07-13T14:04:18;26.40;55.80
921;DHT22;447;51.332;6.778;2023-07-13T14:06:44;26.40;55.60
921;DHT22;447;51.332;6.778;2023-07-13T14:09:13;26.40;55.30
921;DHT22;447;51.332;6.778;2023-07-13T14:11:44;26.50;55.20
921;DHT22;447;51.332;6.778;2023-07-13T14:14:17;26.50;54.80
921;DHT22;447;51.332;6.778;2023-07-13T14:16:44;26.50;54.70
921;DHT22;447;51.332;6.778;2023-07-13T14:19:15;26.50;54.80
921;DHT22;447;51.332;6.778;2023-07-13T14:21:41;26.50;54.70
921;DHT22;447;51.332;6.778;2023-07-13T14:24:07;26.60;54.70
921;DHT22;447;51.332;6.778;2023-07-13T14:26:37;26.60;54.70
921;DHT22;447;51.332;6.778;2023-07-13T14:29:05;26.60;54.70
921;DHT22;447;51.332;6.778;2023-07-13T14:31:38;26.60;54.60
921;DHT22;447;51.332;6.778;2023-07-13T14:34:14;26.60;54.50
921;DHT22;447;51.332;6.778;2023-07-13T14:36:45;26.70;54.40
921;DHT22;447;51.332;6.778;2023-07-13T14:39:24;26.70;54.40
921;DHT22;447;51.332;6.778;2023-07-13T14:41:54;26.70;54.20
921;DHT22;447;51.332;6.778;2023-07-13T14:44:24;26.80;54.00
921;DHT22;447;51.332;6.778;2023-07-13T14:46:55;26.80;53.70
921;DHT22;447;51.332;6.778;2023-07-13T14:49:32;26.80;53.80
921;DHT22;447;51.332;6.778;2023-07-13T14:52:21;26.80;53.80
921;DHT22;447;51.332;6.778;2023-07-13T14:54:48;26.80;53.90
921;DHT22;447;51.332;6.778;2023-07-13T14:57:18;26.90;53.80
921;DHT22;447;51.332;6.778;2023-07-13T14:59:46;26.90;53.60
921;DHT22;447;51.332;6.778;2023-07-13T15:04:40;26.90;53.70
921;DHT22;447;51.332;6.778;2023-07-13T15:07:09;26.90;53.90
921;DHT22;447;51.332;6.778;2023-07-13T15:09:37;27.00;54.20
921;DHT22;447;51.332;6.778;2023-07-13T15:12:03;27.00;54.20
921;DHT22;447;51.332;6.778;2023-07-13T15:14:34;26.90;54.30
921;DHT22;447;51.332;6.778;2023-07-13T15:17:03;27.00;55.30
921;DHT22;447;51.332;6.778;2023-07-13T15:19:32;27.00;55.30
921;DHT22;447;51.332;6.778;2023-07-13T15:22:00;27.00;55.70
921;DHT22;447;51.332;6.778;2023-07-13T15:24:31;26.90;56.30
921;DHT22;447;51.332;6.778;2023-07-13T15:26:59;26.90;56.50
921;DHT22;447;51.332;6.778;2023-07-13T15:29:25;26.90;56.40
921;DHT22;447;51.332;6.778;2023-07-13T15:31:51;26.90;56.60
921;DHT22;447;51.332;6.778;2023-07-13T15:34:23;26.90;56.60
921;DHT22;447;51.332;6.778;2023-07-13T15:36:50;26.90;56.70
921;DHT22;447;51.332;6.778;2023-07-13T15:39:18;26.90;56.90
921;DHT22;447;51.332;6.778;2023-07-13T15:41:47;26.90;56.70
921;DHT22;447;51.332;6.778;2023-07-13T15:44:26;26.90;56.80
921;DHT22;447;51.332;6.778;2023-07-13T15:46:53;26.90;56.80
921;DHT22;447;51.332;6.778;2023-07-13T15:49:20;26.90;56.80
921;DHT22;447;51.332;6.778;2023-07-13T15:51:48;26.90;56.70
921;DHT22;447;51.332;6.778;2023-07-13T15:54:16;26.80;56.70
921;DHT22;447;51.332;6.778;2023-07-13T15:56:55;26.80;56.70
921;DHT22;447;51.332;6.778;2023-07-13T15:59:21;26.80;56.80
921;DHT22;447;51.332;6.778;2023-07-13T16:01:47;26.80;56.60
921;DHT22;447;51.332;6.778;2023-07-13T16:04:15;26.80;56.70
921;DHT22;447;51.332;6.778;2023-07-13T16:06:45;26.80;56.70
921;DHT22;447;51.332;6.778;2023-07-13T16:09:21;26.80;56.80
921;DHT22;447;51.332;6.778;2023-07-13T16:11:48;26.70;56.60
921;DHT22;447;51.332;6.778;2023-07-13T16:14:14;26.80;56.70
921;DHT22;447;51.332;6.778;2023-07-13T16:16:42;26.80;56.60
921;DHT22;447;51.332;6.778;2023-07-13T16:19:10;26.70;56.60
921;DHT22;447;51.332;6.778;2023-07-13T16:21:45;26.70;56.50
921;DHT22;447;51.332;6.778;2023-07-13T16:24:19;26.70;56.40
921;DHT22;447;51.332;6.778;2023-07-13T16:26:55;26.70;56.90
921;DHT22;447;51.332;6.778;2023-07-13T16:29:25;26.70;56.80
921;DHT22;447;51.332;6.778;2023-07-13T16:32:06;26.70;56.60
921;DHT22;447;51.332;6.778;2023-07-13T16:34:39;26.70;56.70
921;DHT22;447;51.332;6.778;2023-07-13T16:37:33;26.70;56.80
921;DHT22;447;51.332;6.778;2023-07-13T16:40:28;26.60;56.90
921;DHT22;447;51.332;6.778;2023-07-13T16:46:21;26.60;56.80
921;DHT22;447;51.332;6.778;2023-07-13T16:48:47;26.60;56.80
921;DHT22;447;51.332;6.778;2023-07-13T16:51:16;26.60;56.80
921;DHT22;447;51.332;6.778;2023-07-13T16:53:44;26.60;56.70
921;DHT22;447;51.332;6.778;2023-07-13T16:56:16;26.60;56.80
921;DHT22;447;51.332;6.778;2023-07-13T16:58:47;26.60;57.30
921;DHT22;447;51.332;6.778;2023-07-13T17:01:13;26.60;56.80
921;DHT22;447;51.332;6.778;2023-07-13T17:03:43;26.60;56.80
921;DHT22;447;51.332;6.778;2023-07-13T17:06:21;26.60;56.90
921;DHT22;447;51.332;6.778;2023-07-13T17:08:54;26.60;57.00
921;DHT22;447;51.332;6.778;2023-07-13T17:11:21;26.60;57.00
921;DHT22;447;51.332;6.778;2023-07-13T17:13:48;26.60;57.10
921;DHT22;447;51.332;6.778;2023-07-13T17:16:14;26.60;57.00
921;DHT22;447;51.332;6.778;2023-07-13T17:18:40;26.60;57.00
921;DHT22;447;51.332;6.778;2023-07-13T17:21:15;26.60;57.00
921;DHT22;447;51.332;6.778;2023-07-13T17:23:41;26.60;57.10
921;DHT22;447;51.332;6.778;2023-07-13T17:26:08;26.60;57.10
921;DHT22;447;51.332;6.778;2023-07-13T17:28:35;26.60;57.10
921;DHT22;447;51.332;6.778;2023-07-13T17:31:02;26.60;57.10
921;DHT22;447;51.332;6.778;2023-07-13T17:36:01;26.60;57.00
921;DHT22;447;51.332;6.778;2023-07-13T17:41:02;26.60;57.00
921;DHT22;447;51.332;6.778;2023-07-13T17:43:30;26.60;57.00
921;DHT22;447;51.332;6.778;2023-07-13T17:45:58;26.60;57.00
921;DHT22;447;51.332;6.778;2023-07-13T17:48:26;26.60;56.90
921;DHT22;447;51.332;6.778;2023-07-13T17:50:54;26.60;56.80
921;DHT22;447;51.332;6.778;2023-07-13T17:53:24;26.60;56.80